createdAt,value
2019-01-04T00:01:37.952Z,101618.36
2019-01-04T00:04:27.771Z,101619.59
2019-01-04T00:06:59.842Z,101611.05
2019-01-04T00:09:29.311Z,101617.53
2019-01-04T00:11:58.816Z,101607.46
2019-01-04T00:14:28.361Z,101602.03
2019-01-04T00:16:57.967Z,101598.45
2019-01-04T00:19:27.385Z,101600.37
2019-01-04T00:22:15.810Z,101592.67
2019-01-04T00:27:44.907Z,101596.27
2019-01-04T00:30:14.920Z,101596.27
2019-01-04T00:32:44.357Z,101596.50
2019-01-04T00:35:14.620Z,101594.12
2019-01-04T00:40:48.804Z,101588.23
2019-01-04T00:43:18.749Z,101575.52
2019-01-04T00:45:48.178Z,101575.52
2019-01-04T00:48:17.681Z,101569.28
2019-01-04T00:50:47.109Z,101564.00
2019-01-04T00:53:16.512Z,101558.95
2019-01-04T00:56:23.942Z,101567.48
2019-01-04T00:59:31.432Z,101560.62
2019-01-04T01:02:11.959Z,101547.89
2019-01-04T01:05:20.051Z,101547.89
2019-01-04T01:08:34.860Z,101540.23
2019-01-04T01:11:45.391Z,101548.37
2019-01-04T01:14:52.915Z,101531.34
2019-01-04T01:18:00.337Z,101541.30
2019-01-04T01:20:41.657Z,101534.12
2019-01-04T01:23:45.846Z,101534.12
2019-01-04T01:26:56.924Z,101536.03
2019-01-04T01:30:05.467Z,101530.63
2019-01-04T01:33:12.991Z,101530.63
2019-01-04T01:36:20.573Z,101536.98
2019-01-04T01:39:28.357Z,101528.81
2019-01-04T01:42:36.081Z,101527.48
2019-01-04T01:45:43.564Z,101528.58
2019-01-04T01:48:24.361Z,101516.80
2019-01-04T01:51:05.321Z,101516.80
2019-01-04T01:53:54.395Z,101495.45
2019-01-04T01:56:43.275Z,101516.78
2019-01-04T01:59:12.674Z,101516.78
2019-01-04T02:01:42.297Z,101518.09
2019-01-04T02:04:11.706Z,101513.08
2019-01-04T02:06:43.646Z,101515.97
2019-01-04T02:09:12.884Z,101518.70
2019-01-04T02:11:42.388Z,101505.27
2019-01-04T02:14:11.909Z,101499.52
2019-01-04T02:16:44.885Z,101479.02
2019-01-04T02:19:33.330Z,101477.70
2019-01-04T02:22:02.987Z,101472.31
2019-01-04T02:24:32.399Z,101472.31
2019-01-04T02:27:02.485Z,101475.17
2019-01-04T02:29:32.014Z,101475.17
2019-01-04T02:32:01.415Z,101466.08
2019-01-04T02:34:30.933Z,101466.08
2019-01-04T02:37:00.590Z,101457.08
2019-01-04T02:39:30.003Z,101448.33
2019-01-04T02:41:59.674Z,101437.41
2019-01-04T02:44:29.093Z,101426.50
2019-01-04T02:46:58.921Z,101434.06
2019-01-04T02:49:28.399Z,101426.86
2019-01-04T02:51:57.845Z,101414.61
2019-01-04T02:54:46.695Z,101414.61
2019-01-04T03:00:10.101Z,101430.80
2019-01-04T03:02:58.602Z,101422.89
2019-01-04T03:05:28.038Z,101422.89
2019-01-04T03:07:57.510Z,101406.83
2019-01-04T03:10:26.938Z,101404.67
2019-01-04T03:12:56.683Z,101403.22
2019-01-04T03:15:26.083Z,101394.58
2019-01-04T03:17:56.236Z,101393.41
2019-01-04T03:20:25.664Z,101379.14
2019-01-04T03:22:55.361Z,101361.05
2019-01-04T03:25:43.898Z,101303.66
2019-01-04T03:28:13.342Z,101303.66
2019-01-04T03:33:33.169Z,101312.66
2019-01-04T03:36:02.744Z,101315.98
2019-01-04T03:38:32.190Z,101316.34
2019-01-04T03:41:02.146Z,101326.66
2019-01-04T03:43:31.615Z,101325.20
2019-01-04T03:46:20.267Z,101318.98
2019-01-04T03:49:09.103Z,101320.19
2019-01-04T03:52:02.757Z,101320.19
2019-01-04T03:54:43.528Z,101311.44
2019-01-04T03:57:24.184Z,101311.44
2019-01-04T03:59:54.711Z,101301.25
2019-01-04T04:02:27.190Z,101295.86
2019-01-04T04:04:56.797Z,101282.94
2019-01-04T04:07:26.221Z,101282.94
2019-01-04T04:09:55.765Z,101269.97
2019-01-04T04:12:44.227Z,101289.39
2019-01-04T04:15:21.032Z,101289.39
2019-01-04T04:17:50.665Z,101276.30
2019-01-04T04:20:39.215Z,101283.73
2019-01-04T04:23:08.748Z,101283.73
2019-01-04T04:25:38.480Z,101278.58
2019-01-04T04:28:08.297Z,101269.91
2019-01-04T04:30:56.875Z,101259.72
2019-01-04T04:33:26.510Z,101259.72
2019-01-04T04:35:57.607Z,101251.05
2019-01-04T04:38:46.149Z,101248.25
2019-01-04T04:41:26.746Z,101239.13
2019-01-04T04:43:56.602Z,101239.13
2019-01-04T04:46:26.052Z,101246.31
2019-01-04T04:48:55.699Z,101241.59
2019-01-04T04:51:44.194Z,101253.11
2019-01-04T04:54:13.853Z,101249.86
2019-01-04T04:56:43.310Z,101237.73
2019-01-04T04:59:12.769Z,101230.37
2019-01-04T05:01:42.217Z,101235.77
2019-01-04T05:04:30.715Z,101227.11
2019-01-04T05:07:11.506Z,101223.02
2019-01-04T05:09:45.699Z,101219.55
2019-01-04T05:12:15.141Z,101223.86
2019-01-04T05:14:44.594Z,101209.34
2019-01-04T05:17:14.029Z,101223.94
2019-01-04T05:19:43.452Z,101215.53
2019-01-04T05:22:12.889Z,101218.89
2019-01-04T05:25:02.654Z,101228.72
2019-01-04T05:30:22.945Z,101217.42
2019-01-04T05:32:53.617Z,101206.75
2019-01-04T05:35:23.211Z,101213.59
2019-01-04T05:37:54.338Z,101222.91
2019-01-04T05:40:23.907Z,101233.57
2019-01-04T05:42:53.342Z,101234.77
2019-01-04T05:45:23.001Z,101224.69
2019-01-04T05:47:52.455Z,101219.86
2019-01-04T05:55:47.011Z,101208.65
2019-01-04T06:00:55.349Z,101204.77
2019-01-04T06:03:25.003Z,101197.25
2019-01-04T06:05:55.124Z,101184.50
2019-01-04T06:08:36.042Z,101167.28
2019-01-04T06:11:05.576Z,101155.72
2019-01-04T06:13:35.003Z,101149.69
2019-01-04T06:16:04.511Z,101150.52
2019-01-04T06:18:33.924Z,101155.45
2019-01-04T06:21:03.391Z,101147.88
2019-01-04T06:23:32.834Z,101148.37
2019-01-04T06:26:02.400Z,101147.05
2019-01-04T06:28:31.823Z,101142.95
2019-01-04T06:31:01.268Z,101154.00
2019-01-04T06:33:30.705Z,101142.59
2019-01-04T06:36:00.097Z,101141.72
2019-01-04T06:38:29.723Z,101138.37
2019-01-04T06:40:59.117Z,101129.95
2019-01-04T06:43:28.558Z,101124.54
2019-01-04T06:45:58.018Z,101119.13
2019-01-04T06:48:30.896Z,101108.91
2019-01-04T06:51:00.302Z,101111.25
2019-01-04T06:53:30.110Z,101105.47
2019-01-04T06:56:03.728Z,101104.28
2019-01-04T06:58:52.183Z,101104.51
2019-01-04T07:01:22.043Z,101097.28
2019-01-04T07:03:54.293Z,101101.95
2019-01-04T07:06:23.973Z,101099.17
2019-01-04T07:09:06.532Z,101089.22
2019-01-04T07:11:36.047Z,101090.54
2019-01-04T07:14:08.061Z,101097.50
2019-01-04T07:16:37.499Z,101089.22
2019-01-04T07:19:07.005Z,101086.84
2019-01-04T07:21:36.535Z,101082.88
2019-01-04T07:24:06.074Z,101093.94
2019-01-04T07:29:10.449Z,101087.45
2019-01-04T07:31:40.376Z,101089.56
2019-01-04T07:34:11.467Z,101083.44
2019-01-04T07:36:41.019Z,101085.59
2019-01-04T07:39:31.200Z,101083.22
2019-01-04T07:44:45.037Z,101078.81
2019-01-04T07:47:28.127Z,101078.47
2019-01-04T07:49:57.661Z,101080.14
2019-01-04T07:52:27.150Z,101077.23
2019-01-04T07:54:56.567Z,101063.17
2019-01-04T08:00:25.308Z,101067.36
2019-01-04T08:03:06.384Z,101066.88
2019-01-04T08:05:47.359Z,101067.14
2019-01-04T08:08:17.017Z,101068.11
2019-01-04T08:10:46.439Z,101072.08
2019-01-04T08:13:15.899Z,101071.59
2019-01-04T08:18:26.252Z,101068.69
2019-01-04T08:26:22.558Z,101076.05
2019-01-04T08:28:55.317Z,101074.11
2019-01-04T08:31:24.908Z,101078.07
2019-01-04T08:33:54.608Z,101074.37
2019-01-04T08:41:56.482Z,101076.05
2019-01-04T08:44:25.921Z,101082.79
2019-01-04T08:46:55.400Z,101076.48
2019-01-04T08:49:24.955Z,101073.62
2019-01-04T08:52:13.257Z,101089.61
2019-01-04T08:54:56.948Z,101086.48
2019-01-04T08:57:26.500Z,101077.45
2019-01-04T08:59:56.286Z,101080.31
2019-01-04T09:05:01.431Z,101075.99
2019-01-04T09:07:43.259Z,101068.20
2019-01-04T09:10:12.768Z,101065.55
2019-01-04T09:12:42.316Z,101061.94
2019-01-04T09:15:12.236Z,101065.29
2019-01-04T09:17:41.704Z,101060.05
2019-01-04T09:20:11.853Z,101046.44
2019-01-04T09:22:42.277Z,101048.73
2019-01-04T09:25:12.222Z,101037.48
2019-01-04T09:27:41.657Z,101040.61
2019-01-04T09:30:51.963Z,101026.27
2019-01-04T09:33:21.526Z,101015.53
2019-01-04T09:35:51.205Z,101011.64
2019-01-04T09:38:20.793Z,101011.23
2019-01-04T09:41:01.989Z,101001.35
2019-01-04T09:43:31.538Z,100993.53
2019-01-04T09:46:01.336Z,100992.14
2019-01-04T09:48:30.743Z,100981.95
2019-01-04T09:51:00.585Z,100981.05
2019-01-04T09:56:18.517Z,100980.80
2019-01-04T09:58:47.954Z,100982.75
2019-01-04T10:01:17.926Z,100981.60
2019-01-04T10:03:47.414Z,100982.23
2019-01-04T10:06:17.245Z,100977.77
2019-01-04T10:08:57.987Z,100974.98
2019-01-04T10:11:27.534Z,100974.98
2019-01-04T10:13:56.938Z,100974.98
2019-01-04T10:16:26.574Z,100964.44
2019-01-04T10:18:56.796Z,100952.95
2019-01-04T10:21:27.217Z,100947.52
2019-01-04T10:23:56.661Z,100932.47
2019-01-04T10:26:45.511Z,100919.61
2019-01-04T10:29:15.152Z,100922.81
2019-01-04T10:31:44.583Z,100922.81
2019-01-04T10:34:14.065Z,100924.83
2019-01-04T10:37:02.653Z,100903.05
2019-01-04T10:39:32.123Z,100903.05
2019-01-04T10:42:01.739Z,100899.28
2019-01-04T10:44:31.167Z,100894.53
2019-01-04T10:47:19.974Z,100892.92
2019-01-04T10:49:49.478Z,100892.92
2019-01-04T10:52:19.006Z,100890.77
2019-01-04T10:54:48.454Z,100891.97
2019-01-04T10:57:17.876Z,100855.08
2019-01-04T10:59:47.305Z,100855.08
2019-01-04T11:02:16.917Z,100851.67
2019-01-04T11:04:46.329Z,100846.28
2019-01-04T11:07:15.958Z,100828.79
2019-01-04T11:09:45.502Z,100828.79
2019-01-04T11:12:15.950Z,100828.00
2019-01-04T11:14:46.520Z,100824.23
2019-01-04T11:19:50.932Z,100822.23
2019-01-04T11:22:58.306Z,100822.09
2019-01-04T11:28:30.612Z,100832.38
2019-01-04T11:31:26.522Z,100826.59
2019-01-04T11:34:28.273Z,100826.59
2019-01-04T11:37:35.610Z,100806.58
2019-01-04T11:40:43.034Z,100807.95
2019-01-04T11:43:44.750Z,100806.13
2019-01-04T11:46:52.224Z,100800.55
2019-01-04T11:49:33.625Z,100804.23
2019-01-04T11:52:31.012Z,100804.23
2019-01-04T11:55:15.626Z,100796.86
2019-01-04T11:57:45.294Z,100796.86
2019-01-04T12:00:14.805Z,100791.37
2019-01-04T12:02:44.476Z,100787.10
2019-01-04T12:05:36.252Z,100779.16
2019-01-04T12:08:24.736Z,100779.94
2019-01-04T12:10:54.284Z,100779.94
2019-01-04T12:13:23.780Z,100772.64
2019-01-04T12:15:53.310Z,100777.59
2019-01-04T12:18:23.180Z,100761.00
2019-01-04T12:20:52.813Z,100759.53
2019-01-04T12:23:22.447Z,100759.53
2019-01-04T12:26:11.005Z,100746.29
2019-01-04T12:28:52.059Z,100746.29
2019-01-04T12:31:21.635Z,100731.08
2019-01-04T12:33:51.217Z,100734.22
2019-01-04T12:39:09.814Z,100724.47
2019-01-04T12:44:29.414Z,100721.47
2019-01-04T12:46:58.831Z,100712.50
2019-01-04T12:49:28.220Z,100711.52
2019-01-04T12:51:57.646Z,100713.34
2019-01-04T12:54:27.073Z,100705.09
2019-01-04T12:56:56.843Z,100677.74
2019-01-04T13:02:01.492Z,100665.86
2019-01-04T13:04:30.940Z,100672.34
2019-01-04T13:07:00.495Z,100671.70
2019-01-04T13:09:29.912Z,100682.78
2019-01-04T13:11:59.355Z,100670.22
2019-01-04T13:14:28.779Z,100669.58
2019-01-04T13:16:58.212Z,100664.97
2019-01-04T13:19:46.941Z,100656.00
2019-01-04T13:22:16.409Z,100656.00
2019-01-04T13:24:48.051Z,100671.09
2019-01-04T13:27:17.530Z,100653.73
2019-01-04T13:29:53.060Z,100655.89
2019-01-04T13:32:22.527Z,100650.55
2019-01-04T13:34:52.381Z,100672.46
2019-01-04T13:37:22.029Z,100679.09
2019-01-04T13:39:54.273Z,100667.16
2019-01-04T13:42:25.695Z,100658.88
2019-01-04T13:44:55.157Z,100656.23
2019-01-04T13:47:24.793Z,100655.36
2019-01-04T13:52:43.318Z,100648.73
2019-01-04T13:55:12.720Z,100650.40
2019-01-04T13:57:42.124Z,100657.02
2019-01-04T14:00:11.830Z,100646.95
2019-01-04T14:02:41.396Z,100646.95
2019-01-04T14:05:29.904Z,100637.65
2019-01-04T14:10:43.225Z,100651.12
2019-01-04T14:13:12.810Z,100648.16
2019-01-04T14:15:42.726Z,100645.02
2019-01-04T14:18:12.204Z,100648.01
2019-01-04T14:20:41.618Z,100656.45
2019-01-04T14:23:11.139Z,100643.73
2019-01-04T14:25:40.738Z,100638.46
2019-01-04T14:28:12.927Z,100638.46
2019-01-04T14:30:42.462Z,100638.28
2019-01-04T14:33:11.913Z,100629.87
2019-01-04T14:35:41.542Z,100629.03
2019-01-04T14:38:27.083Z,100644.63
2019-01-04T14:40:44.085Z,100635.53
2019-01-04T14:43:13.882Z,100638.21
2019-01-04T14:45:43.294Z,100626.78
2019-01-04T14:48:20.329Z,100635.09
2019-01-04T14:51:09.093Z,100625.30
2019-01-04T14:53:38.507Z,100625.30
2019-01-04T14:56:08.427Z,100637.09
2019-01-04T14:58:38.142Z,100630.31
2019-01-04T15:01:08.036Z,100633.63
2019-01-04T15:04:13.341Z,100626.05
2019-01-04T15:06:54.030Z,100626.05
2019-01-04T15:09:23.463Z,100612.47
2019-01-04T15:11:52.873Z,100612.47
2019-01-04T15:14:25.359Z,100619.25
2019-01-04T15:16:55.007Z,100613.80
2019-01-04T15:19:24.429Z,100610.80
2019-01-04T15:21:54.099Z,100599.69
2019-01-04T15:24:23.826Z,100606.63
2019-01-04T15:26:53.328Z,100602.13
2019-01-04T15:29:22.765Z,100599.67
2019-01-04T15:31:52.306Z,100596.84
2019-01-04T15:34:21.772Z,100594.16
2019-01-04T15:36:51.307Z,100595.47
2019-01-04T15:39:20.982Z,100597.13
2019-01-04T15:42:09.420Z,100596.61
2019-01-04T15:44:38.995Z,100589.96
2019-01-04T15:47:11.528Z,100583.13
2019-01-04T15:49:41.126Z,100583.13
2019-01-04T15:52:10.710Z,100607.16
2019-01-04T15:54:40.288Z,100591.57
2019-01-04T15:57:09.844Z,100588.92
2019-01-04T15:59:39.295Z,100586.61
2019-01-04T16:02:10.440Z,100593.91
2019-01-04T16:04:40.027Z,100587.47
2019-01-04T16:10:04.403Z,100570.61
2019-01-04T16:12:33.946Z,100581.88
2019-01-04T16:15:03.388Z,100581.88
2019-01-04T16:17:32.871Z,100577.56
2019-01-04T16:20:02.297Z,100568.28
2019-01-04T16:22:31.751Z,100573.09
2019-01-04T16:25:01.291Z,100575.09
2019-01-04T16:27:30.735Z,100572.95
2019-01-04T16:30:00.172Z,100567.99
2019-01-04T16:32:29.730Z,100574.98
2019-01-04T16:34:59.289Z,100561.23
2019-01-04T16:37:28.744Z,100563.86
2019-01-04T16:39:58.330Z,100580.79
2019-01-04T16:42:28.352Z,100574.34
2019-01-04T16:44:57.788Z,100573.69
2019-01-04T16:47:27.361Z,100560.75
2019-01-04T16:49:56.906Z,100564.25
2019-01-04T16:52:31.061Z,100562.23
2019-01-04T16:55:00.599Z,100565.06
2019-01-04T16:57:29.998Z,100565.91
2019-01-04T16:59:59.417Z,100566.59
2019-01-04T17:02:28.971Z,100563.27
2019-01-04T17:04:58.421Z,100557.94
2019-01-04T17:07:34.509Z,100557.94
2019-01-04T17:10:15.919Z,100550.98
2019-01-04T17:12:45.389Z,100564.27
2019-01-04T17:15:14.837Z,100562.61
2019-01-04T17:17:44.395Z,100559.78
2019-01-04T17:20:13.917Z,100558.28
2019-01-04T17:22:43.379Z,100558.28
2019-01-04T17:25:31.882Z,100551.67
2019-01-04T17:28:01.429Z,100551.67
2019-01-04T17:30:31.396Z,100550.34
2019-01-04T17:33:00.788Z,100552.34
2019-01-04T17:35:30.325Z,100549.53
2019-01-04T17:37:59.777Z,100556.83
2019-01-04T17:40:29.234Z,100549.37
2019-01-04T17:42:58.737Z,100555.82
2019-01-04T17:45:28.178Z,100556.98
2019-01-04T17:47:57.659Z,100556.66
2019-01-04T17:50:27.271Z,100545.36
2019-01-04T17:52:56.760Z,100553.02
2019-01-04T17:58:01.710Z,100561.30
2019-01-04T18:00:31.253Z,100560.95
2019-01-04T18:03:01.082Z,100559.98
2019-01-04T18:05:31.910Z,100565.95
2019-01-04T18:08:01.337Z,100570.77
2019-01-04T18:13:19.669Z,100565.46
2019-01-04T18:15:49.285Z,100564.14
2019-01-04T18:18:18.784Z,100566.13
2019-01-04T18:20:48.686Z,100557.17
2019-01-04T18:23:18.138Z,100560.17
2019-01-04T18:25:51.682Z,100560.15
2019-01-04T18:28:40.103Z,100561.32
2019-01-04T18:31:09.777Z,100564.14
2019-01-04T18:33:39.274Z,100567.27
2019-01-04T18:38:45.167Z,100571.45
2019-01-04T18:41:14.680Z,100571.45
2019-01-04T18:43:44.217Z,100573.95
2019-01-04T18:46:13.679Z,100567.98
2019-01-04T18:48:43.119Z,100567.65
2019-01-04T18:51:12.527Z,100566.30
2019-01-04T18:53:42.049Z,100561.98
2019-01-04T18:56:11.495Z,100559.33
2019-01-04T18:58:40.981Z,100559.16
2019-01-04T19:01:29.698Z,100554.52
2019-01-04T19:06:44.772Z,100548.53
2019-01-04T19:09:14.300Z,100553.19
2019-01-04T19:11:44.089Z,100543.75
2019-01-04T19:14:32.364Z,100548.89
2019-01-04T19:17:01.778Z,100540.39
2019-01-04T19:19:31.244Z,100543.73
2019-01-04T19:22:00.707Z,100548.70
2019-01-04T19:24:30.133Z,100545.06
2019-01-04T19:26:59.543Z,100539.58
2019-01-04T19:29:28.956Z,100546.05
2019-01-04T19:31:58.442Z,100538.77
2019-01-04T19:34:28.101Z,100546.06
2019-01-04T19:36:57.635Z,100542.41
2019-01-04T19:39:27.493Z,100542.08
2019-01-04T19:41:56.922Z,100542.26
2019-01-04T19:44:26.505Z,100544.72
2019-01-04T19:46:55.951Z,100548.20
2019-01-04T19:49:25.438Z,100547.03
2019-01-04T19:51:55.020Z,100551.84
2019-01-04T19:54:24.442Z,100554.00
2019-01-04T19:56:54.001Z,100554.34
2019-01-04T19:59:23.650Z,100556.00
2019-01-04T20:01:53.225Z,100553.84
2019-01-04T20:04:23.108Z,100550.70
2019-01-04T20:07:55.262Z,100557.16
2019-01-04T20:11:21.789Z,100555.53
2019-01-04T20:17:43.242Z,100545.72
2019-01-04T20:20:31.948Z,100547.88
2019-01-04T20:26:04.032Z,100547.20
2019-01-04T20:28:52.774Z,100546.38
2019-01-04T20:34:27.885Z,100537.95
2019-01-04T20:40:20.482Z,100546.40
2019-01-04T20:43:08.800Z,100555.19
2019-01-04T20:45:58.046Z,100546.05
2019-01-04T20:48:46.378Z,100562.30
2019-01-04T20:51:34.742Z,100568.44
2019-01-04T20:54:23.017Z,100557.67
2019-01-04T20:57:11.349Z,100562.80
2019-01-04T21:00:00.171Z,100553.02
2019-01-04T21:02:49.294Z,100561.48
2019-01-04T21:05:37.725Z,100560.97
2019-01-04T21:08:26.061Z,100561.64
2019-01-04T21:11:14.445Z,100562.77
2019-01-04T21:14:02.797Z,100559.80
2019-01-04T21:16:51.132Z,100556.45
2019-01-04T21:19:58.607Z,100544.00
2019-01-04T21:22:46.923Z,100544.00
2019-01-04T21:25:35.390Z,100551.61
2019-01-04T21:28:23.682Z,100548.27
2019-01-04T21:31:12.025Z,100561.16
2019-01-04T21:34:00.637Z,100554.03
2019-01-04T21:36:49.371Z,100548.86
2019-01-04T21:39:37.885Z,100543.08
2019-01-04T21:42:26.266Z,100542.40
2019-01-04T21:45:33.569Z,100545.86
2019-01-04T21:48:22.021Z,100545.86
2019-01-04T21:51:10.369Z,100546.84
2019-01-04T21:53:58.815Z,100546.69
2019-01-04T21:56:47.208Z,100544.19
2019-01-04T21:59:35.674Z,100546.34
2019-01-04T22:02:24.221Z,100550.81
2019-01-04T22:05:10.661Z,100540.87
2019-01-04T22:07:59.137Z,100550.97
2019-01-04T22:10:47.430Z,100547.00
2019-01-04T22:13:35.763Z,100553.62
2019-01-04T22:16:24.221Z,100558.11
2019-01-04T22:19:12.628Z,100560.11
2019-01-04T22:21:55.018Z,100569.57
2019-01-04T22:25:02.578Z,100564.60
2019-01-04T22:27:50.985Z,100564.60
2019-01-04T22:30:39.328Z,100567.13
2019-01-04T22:33:28.410Z,100560.67
2019-01-04T22:36:16.877Z,100561.69
2019-01-04T22:39:19.539Z,100569.67
2019-01-04T22:42:08.058Z,100569.67
2019-01-04T22:44:56.613Z,100564.39
2019-01-04T22:47:44.970Z,100575.69
2019-01-04T22:50:33.463Z,100575.69
2019-01-04T22:53:21.767Z,100576.70
2019-01-04T22:56:10.657Z,100580.83
2019-01-04T22:58:51.739Z,100579.52
2019-01-04T23:01:40.155Z,100580.34
2019-01-04T23:07:36.779Z,100582.22
2019-01-04T23:10:25.560Z,100590.00
2019-01-04T23:13:14.001Z,100583.72
2019-01-04T23:16:03.900Z,100583.53
2019-01-04T23:18:52.286Z,100587.52
2019-01-04T23:22:18.622Z,100586.70
2019-01-04T23:25:06.938Z,100591.19
2019-01-04T23:30:45.684Z,100597.00
2019-01-04T23:39:09.446Z,100591.86
2019-01-04T23:41:57.784Z,100593.36
2019-01-04T23:44:41.503Z,100588.68
2019-01-04T23:47:32.633Z,100588.52
2019-01-04T23:50:21.103Z,100591.02
2019-01-04T23:56:18.414Z,100585.86
2019-01-04T23:59:06.722Z,100593.19
